createdAt,value
2022-11-16T00:00:35.889Z,99592.83
2022-11-16T00:01:35.768Z,99596.03
2022-11-16T00:02:35.839Z,99600.01
2022-11-16T00:03:36.197Z,99592.52
2022-11-16T00:04:35.997Z,99598.84
2022-11-16T00:05:35.808Z,99595.42
2022-11-16T00:06:35.782Z,99596.58
2022-11-16T00:07:36.242Z,99594.48
2022-11-16T00:08:37.032Z,99591.65
2022-11-16T00:09:36.274Z,99596.05
2022-11-16T00:10:35.864Z,99597.12
2022-11-16T00:11:36.475Z,99600.42
2022-11-16T00:12:35.883Z,99595.83
2022-11-16T00:13:36.578Z,99596.59
2022-11-16T00:14:36.329Z,99595.7
2022-11-16T00:15:36.492Z,99592.36
2022-11-16T00:16:35.936Z,99595.09
2022-11-16T00:17:36.185Z,99598.37
2022-11-16T00:18:36.220Z,99594.47
2022-11-16T00:19:35.946Z,99590.28
2022-11-16T00:20:38.196Z,99596.77
2022-11-16T00:21:35.981Z,99600.12
2022-11-16T00:22:36.025Z,99600.52
2022-11-16T00:23:37.124Z,99603.04
2022-11-16T00:24:36.024Z,99597.08
2022-11-16T00:25:36.038Z,99597.39
2022-11-16T00:26:36.050Z,99601.79
2022-11-16T00:27:36.250Z,99601.85
2022-11-16T00:28:36.491Z,99604.48
2022-11-16T00:29:36.114Z,99608.21
2022-11-16T00:30:36.502Z,99608.08
2022-11-16T00:31:36.410Z,99604.22
2022-11-16T00:32:36.168Z,99609.44
2022-11-16T00:33:36.162Z,99609.05
2022-11-16T00:34:36.180Z,99612.4
2022-11-16T00:35:39.822Z,99606.27
2022-11-16T00:36:36.205Z,99610.5
2022-11-16T00:37:36.220Z,99612.53
2022-11-16T00:38:36.489Z,99612.47
2022-11-16T00:39:36.217Z,99613.37
2022-11-16T00:40:36.244Z,99612.19
2022-11-16T00:41:36.234Z,99610.12
2022-11-16T00:42:36.272Z,99610.12
2022-11-16T00:43:36.744Z,99608.12
2022-11-16T00:44:36.274Z,99607.6
2022-11-16T00:45:36.271Z,99608.89
2022-11-16T00:46:36.501Z,99610.54
2022-11-16T00:47:36.388Z,99610.45
2022-11-16T00:48:36.815Z,99613.88
2022-11-16T00:49:36.323Z,99615.75
2022-11-16T00:50:36.526Z,99613.07
2022-11-16T00:51:37.039Z,99611.93
2022-11-16T00:52:36.353Z,99610.64
2022-11-16T00:53:36.928Z,99613.3
2022-11-16T00:54:36.396Z,99612.88
2022-11-16T00:55:36.805Z,99615.51
2022-11-16T00:56:36.988Z,99615.34
2022-11-16T00:57:36.430Z,99612.99
2022-11-16T00:58:36.675Z,99616.45
2022-11-16T00:59:36.495Z,99616.34
2022-11-16T01:00:36.472Z,99614.93
2022-11-16T01:01:36.749Z,99619.03
2022-11-16T01:02:36.731Z,99613.78
2022-11-16T01:03:36.727Z,99615.19
2022-11-16T01:04:36.565Z,99615.88
2022-11-16T01:05:36.563Z,99616.65
2022-11-16T01:06:36.561Z,99610.05
2022-11-16T01:07:37.396Z,99617.36
2022-11-16T01:08:37.293Z,99620.05
2022-11-16T01:09:36.636Z,99617.02
2022-11-16T01:10:38.603Z,99614.11
2022-11-16T01:11:36.609Z,99620.77
2022-11-16T01:12:36.642Z,99621.89
2022-11-16T01:13:36.635Z,99622.97
2022-11-16T01:14:37.453Z,99617.86
2022-11-16T01:15:36.647Z,99620.06
2022-11-16T01:16:37.094Z,99621.81
2022-11-16T01:17:37.750Z,99626.85
2022-11-16T01:18:36.690Z,99621.64
2022-11-16T01:19:37.336Z,99619.09
2022-11-16T01:20:36.761Z,99621.2
2022-11-16T01:21:36.724Z,99618.84
2022-11-16T01:22:37.587Z,99617.83
2022-11-16T01:23:36.771Z,99624.01
2022-11-16T01:24:36.782Z,99623.88
2022-11-16T01:25:36.788Z,99627.64
2022-11-16T01:26:36.820Z,99625.8
2022-11-16T01:27:37.228Z,99625.03
2022-11-16T01:28:37.173Z,99630.24
2022-11-16T01:29:36.844Z,99626.8
2022-11-16T01:30:36.847Z,99628.88
2022-11-16T01:31:36.895Z,99627.61
2022-11-16T01:32:37.125Z,99632.06
2022-11-16T01:33:37.438Z,99634.02
2022-11-16T01:34:37.551Z,99638.22
2022-11-16T01:35:36.924Z,99637.06
2022-11-16T01:36:36.950Z,99637.64
2022-11-16T01:37:36.936Z,99640.56
2022-11-16T01:38:37.299Z,99640.03
2022-11-16T01:39:37.341Z,99639.14
2022-11-16T01:40:37.567Z,99638.78
2022-11-16T01:41:37.210Z,99642.65
2022-11-16T01:42:37.181Z,99641.84
2022-11-16T01:45:41.490Z,99640.01
2022-11-16T01:46:42.263Z,99643.73
2022-11-16T01:47:41.531Z,99640.67
2022-11-16T01:48:42.056Z,99639.1
2022-11-16T01:49:46.136Z,99638.74
2022-11-16T01:50:43.288Z,99638.43
2022-11-16T01:51:43.993Z,99642.99
2022-11-16T01:53:45.355Z,99637.29
2022-11-16T01:54:46.590Z,99635.55
2022-11-16T01:55:47.232Z,99634.03
2022-11-16T01:56:46.493Z,99638.58
2022-11-16T01:57:45.963Z,99635.27
2022-11-16T01:58:45.602Z,99626.22
2022-11-16T01:59:46.594Z,99630.21
2022-11-16T02:00:45.465Z,99631.2
2022-11-16T02:01:45.176Z,99630.89
2022-11-16T02:02:45.212Z,99629.71
2022-11-16T02:03:45.205Z,99631.34
2022-11-16T02:04:45.877Z,99634.67
2022-11-16T02:14:13.992Z,99626.62
2022-11-16T02:15:10.497Z,99626.4
2022-11-16T02:16:14.481Z,99624.35
2022-11-16T02:29:52.074Z,99623.98
2022-11-16T02:30:53.205Z,99622.75
2022-11-16T02:31:53.913Z,99623.56
2022-11-16T02:32:58.472Z,99621.14
2022-11-16T02:33:56.580Z,99623.69
2022-11-16T02:36:01.003Z,99624.12
2022-11-16T02:37:01.322Z,99625.12
2022-11-16T02:40:06.675Z,99626.87
2022-11-16T02:42:10.180Z,99628.48
2022-11-16T02:45:15.184Z,99632.53
2022-11-16T02:46:16.905Z,99631.31
2022-11-16T02:47:17.149Z,99628.08
2022-11-16T02:48:22.479Z,99626.84
2022-11-16T02:49:17.375Z,99630.8
2022-11-16T02:50:16.457Z,99634.18
2022-11-16T02:51:14.636Z,99627.92
2022-11-16T02:52:15.518Z,99630.66
2022-11-16T02:53:14.997Z,99626.48
2022-11-16T02:54:18.942Z,99631.1
2022-11-16T02:55:15.639Z,99628.4
2022-11-16T02:56:15.674Z,99631.56
2022-11-16T02:57:28.579Z,99632.75
2022-11-16T02:58:21.611Z,99630.88
2022-11-16T02:59:21.241Z,99631.15
2022-11-16T03:00:25.092Z,99629.52
2022-11-16T03:01:27.735Z,99627.03
2022-11-16T03:02:33.870Z,99628.36
2022-11-16T03:03:33.850Z,99629.38
2022-11-16T03:04:42.956Z,99631.64
2022-11-16T03:05:44.690Z,99634.41
2022-11-16T03:06:38.162Z,99632.92
2022-11-16T03:07:42.241Z,99633.94
2022-11-16T03:09:41.658Z,99636.62
2022-11-16T03:10:41.149Z,99639.45
2022-11-16T03:11:44.238Z,99642.64
2022-11-16T03:12:40.858Z,99638.88
2022-11-16T03:13:41.026Z,99642.54
2022-11-16T03:15:46.223Z,99641.18
2022-11-16T03:16:47.950Z,99640.11
2022-11-16T03:17:46.440Z,99642.98
2022-11-16T03:18:46.672Z,99641.28
2022-11-16T03:19:53.794Z,99641.78
2022-11-16T03:20:46.961Z,99638.31
2022-11-16T03:21:48.154Z,99639.72
2022-11-16T03:22:47.081Z,99641.58
2022-11-16T03:23:45.771Z,99641.77
2022-11-16T03:24:45.814Z,99642.33
2022-11-16T03:25:48.742Z,99643.57
2022-11-16T03:27:54.259Z,99643.19
2022-11-16T03:28:54.634Z,99639.59
2022-11-16T03:29:58.622Z,99643.74
2022-11-16T03:30:58.588Z,99644.62
2022-11-16T03:31:58.457Z,99646.08
2022-11-16T03:34:00.552Z,99645.23
2022-11-16T03:35:02.921Z,99648.03
2022-11-16T03:37:02.634Z,99648.11
2022-11-16T03:38:02.763Z,99647.09
2022-11-16T03:40:07.504Z,99649.75
2022-11-16T03:41:09.414Z,99645.09
2022-11-16T03:42:09.106Z,99650.38
2022-11-16T03:43:07.061Z,99651.41
2022-11-16T03:44:07.796Z,99653.6
2022-11-16T03:45:06.879Z,99649.42
2022-11-16T03:46:06.180Z,99649.19
2022-11-16T03:47:06.411Z,99648.31
2022-11-16T03:48:06.810Z,99651.06
2022-11-16T03:49:06.616Z,99651.77
2022-11-16T03:50:06.810Z,99645.55
2022-11-16T03:51:07.928Z,99645.28
2022-11-16T03:52:06.186Z,99649.09
2022-11-16T03:53:06.600Z,99650.05
2022-11-16T03:54:06.411Z,99646.5
2022-11-16T03:55:07.148Z,99651.12
2022-11-16T03:56:06.766Z,99653.17
2022-11-16T03:57:06.351Z,99651.83
2022-11-16T03:58:06.447Z,99651.92
2022-11-16T03:59:06.313Z,99651.94
2022-11-16T04:00:07.086Z,99648.16
2022-11-16T04:01:06.728Z,99653
2022-11-16T04:02:06.430Z,99657.28
2022-11-16T04:03:06.595Z,99651.98
2022-11-16T04:04:06.432Z,99650.37
2022-11-16T04:05:06.814Z,99653.48
2022-11-16T04:06:06.458Z,99649.66
2022-11-16T04:07:06.538Z,99651.23
2022-11-16T04:08:06.461Z,99653.38
2022-11-16T04:09:06.470Z,99654.38
2022-11-16T04:10:07.051Z,99651
2022-11-16T04:11:08.654Z,99654.28
2022-11-16T04:12:08.202Z,99654.78
2022-11-16T04:13:08.503Z,99657.27
2022-11-16T04:14:10.552Z,99653.86
2022-11-16T04:15:09.348Z,99650.78
2022-11-16T04:16:08.866Z,99650.88
2022-11-16T04:17:17.154Z,99652.78
2022-11-16T04:18:10.284Z,99644.77
2022-11-16T04:19:09.086Z,99648.21
2022-11-16T04:20:10.410Z,99647.7
2022-11-16T04:21:17.129Z,99649.75
2022-11-16T04:22:26.547Z,99652.28
2022-11-16T04:23:18.427Z,99654.95
2022-11-16T04:24:20.238Z,99647.39
2022-11-16T04:25:20.876Z,99652.22
2022-11-16T04:26:18.304Z,99653.4
2022-11-16T04:27:21.097Z,99649.53
2022-11-16T04:28:22.448Z,99651.53
2022-11-16T04:29:19.298Z,99642.53
2022-11-16T04:30:19.194Z,99650.06
2022-11-16T04:31:19.216Z,99647.41
2022-11-16T04:32:19.156Z,99650.72
2022-11-16T04:33:19.274Z,99649.72
2022-11-16T04:34:19.451Z,99652.81
2022-11-16T04:35:19.185Z,99650.02
2022-11-16T04:36:20.795Z,99653.54
2022-11-16T04:37:19.530Z,99651.28
2022-11-16T04:38:19.510Z,99651.94
2022-11-16T04:39:19.268Z,99652.7
2022-11-16T04:40:20.418Z,99650.82
2022-11-16T04:41:19.280Z,99656.45
2022-11-16T04:42:19.271Z,99656.09
2022-11-16T04:43:19.327Z,99652.32
2022-11-16T04:44:19.563Z,99656.19
2022-11-16T04:45:19.998Z,99652.98
2022-11-16T04:46:19.453Z,99656.7
2022-11-16T04:47:19.401Z,99658.81
2022-11-16T04:48:19.912Z,99654.86
2022-11-16T04:49:19.410Z,99660.06
2022-11-16T04:50:19.829Z,99658.86
2022-11-16T04:51:19.455Z,99658.66
2022-11-16T04:52:19.459Z,99660.41
2022-11-16T04:53:19.498Z,99656.45
2022-11-16T04:54:19.558Z,99653.67
2022-11-16T04:55:19.610Z,99655.5
2022-11-16T04:56:19.520Z,99653.56
2022-11-16T04:57:19.572Z,99649.72
2022-11-16T04:58:19.560Z,99654.34
2022-11-16T04:59:19.785Z,99647.61
2022-11-16T05:00:20.015Z,99659.18
2022-11-16T05:01:19.750Z,99651.25
2022-11-16T05:02:19.677Z,99655.8
2022-11-16T05:03:19.654Z,99659.05
2022-11-16T05:04:19.690Z,99656.36
2022-11-16T05:05:19.666Z,99654.06
2022-11-16T05:06:19.698Z,99653.12
2022-11-16T05:07:19.871Z,99652.99
2022-11-16T05:08:19.751Z,99660.2
2022-11-16T05:09:19.743Z,99663.41
2022-11-16T05:10:19.783Z,99664.7
2022-11-16T05:11:19.785Z,99657.31
2022-11-16T05:12:21.227Z,99664.61
2022-11-16T05:13:19.801Z,99662.73
2022-11-16T05:14:19.840Z,99664.42
2022-11-16T05:15:19.957Z,99664.42
2022-11-16T05:16:19.867Z,99666.81
2022-11-16T05:17:19.845Z,99662.55
2022-11-16T05:18:19.927Z,99660.55
2022-11-16T05:19:19.914Z,99661.36
2022-11-16T05:20:19.865Z,99657.28
2022-11-16T05:21:19.950Z,99661.28
2022-11-16T05:22:22.487Z,99659.51
2022-11-16T05:23:20.046Z,99663.22
2022-11-16T05:24:20.151Z,99663.2
2022-11-16T05:25:20.024Z,99664.83
2022-11-16T05:26:20.037Z,99666.59
2022-11-16T05:27:21.307Z,99662.58
2022-11-16T05:28:20.072Z,99661.48
2022-11-16T05:29:20.059Z,99661.67
2022-11-16T05:30:20.294Z,99662.67
2022-11-16T05:31:20.078Z,99665.89
2022-11-16T05:32:21.430Z,99665.92
2022-11-16T05:33:20.136Z,99662.86
2022-11-16T05:34:20.180Z,99663.17
2022-11-16T05:35:20.322Z,99660.09
2022-11-16T05:36:20.180Z,99660.84
2022-11-16T05:37:20.518Z,99664
2022-11-16T05:38:20.234Z,99662.27
2022-11-16T05:39:20.252Z,99666.3
2022-11-16T05:40:20.244Z,99659.3
2022-11-16T05:41:20.474Z,99662.2
2022-11-16T05:42:20.272Z,99661.59
2022-11-16T05:43:20.239Z,99663.72
2022-11-16T05:44:20.723Z,99665.05
2022-11-16T05:45:21.278Z,99667.19
2022-11-16T05:46:20.369Z,99669.2
2022-11-16T05:47:20.354Z,99667.3
2022-11-16T05:48:20.394Z,99671.53
2022-11-16T05:49:20.551Z,99667.22
2022-11-16T05:50:20.444Z,99671.91
2022-11-16T05:51:20.652Z,99672.61
2022-11-16T05:52:20.426Z,99675.25
2022-11-16T05:53:20.464Z,99676.08
2022-11-16T05:54:21.501Z,99675.67
2022-11-16T05:55:20.546Z,99683.61
2022-11-16T05:56:20.619Z,99680.36
2022-11-16T05:57:20.523Z,99677.85
2022-11-16T05:58:20.552Z,99679.61
2022-11-16T05:59:21.432Z,99680.58
2022-11-16T06:00:21.063Z,99680.97
2022-11-16T06:01:20.580Z,99681.25
2022-11-16T06:02:20.549Z,99675.95
2022-11-16T06:03:20.711Z,99679.69
2022-11-16T06:04:25.971Z,99681.82
2022-11-16T06:05:22.677Z,99682.91
2022-11-16T06:06:22.631Z,99675.5
2022-11-16T06:07:22.773Z,99680.03
2022-11-16T06:08:22.701Z,99672.16
2022-11-16T06:09:22.730Z,99673.73
2022-11-16T06:10:22.717Z,99668.36
2022-11-16T06:11:22.772Z,99673.01
2022-11-16T06:12:22.825Z,99668.92
2022-11-16T06:13:22.787Z,99673.31
2022-11-16T06:14:22.930Z,99677.8
2022-11-16T06:15:23.027Z,99676.34
2022-11-16T06:16:23.408Z,99674.14
2022-11-16T06:17:22.864Z,99673.08
2022-11-16T06:18:22.867Z,99669.25
2022-11-16T06:19:25.960Z,99673.19
2022-11-16T06:20:25.098Z,99671.06
2022-11-16T06:21:25.103Z,99673.39
2022-11-16T06:22:25.113Z,99675.73
2022-11-16T06:23:25.107Z,99669.98
2022-11-16T06:24:25.110Z,99674.77
2022-11-16T06:25:25.715Z,99679.17
2022-11-16T06:26:25.158Z,99676.08
2022-11-16T06:27:25.151Z,99679.01
2022-11-16T06:28:25.784Z,99678.36
2022-11-16T06:29:25.204Z,99680.25
2022-11-16T06:30:25.251Z,99682.02
2022-11-16T06:31:25.229Z,99681.92
2022-11-16T06:32:25.262Z,99683.39
2022-11-16T06:33:27.655Z,99682.77
2022-11-16T06:34:28.283Z,99681.3
2022-11-16T06:35:27.518Z,99679.8
2022-11-16T06:36:27.586Z,99679.28
2022-11-16T06:37:27.592Z,99682.4
2022-11-16T06:38:27.663Z,99685.34
2022-11-16T06:39:27.595Z,99682.62
2022-11-16T06:40:27.631Z,99686.69
2022-11-16T06:41:27.732Z,99689.15
2022-11-16T06:42:27.637Z,99690.13
2022-11-16T06:43:27.706Z,99693.28
2022-11-16T06:44:28.058Z,99693.34
2022-11-16T06:45:28.269Z,99691.34
2022-11-16T06:46:27.759Z,99696.22
2022-11-16T06:47:27.802Z,99697.2
2022-11-16T06:48:27.787Z,99697.23
2022-11-16T06:49:27.804Z,99693.05
2022-11-16T06:50:27.790Z,99696.16
2022-11-16T06:51:27.916Z,99701.92
2022-11-16T06:52:27.824Z,99703.88
2022-11-16T06:53:29.587Z,99702.15
2022-11-16T06:54:27.859Z,99706.6
2022-11-16T06:55:28.442Z,99707.58
2022-11-16T06:56:27.960Z,99706.93
2022-11-16T06:57:28.499Z,99703.58
2022-11-16T06:58:28.907Z,99706.39
2022-11-16T06:59:28.007Z,99709.9
2022-11-16T07:00:27.988Z,99705.12
2022-11-16T07:01:28.093Z,99703.48
2022-11-16T07:02:27.971Z,99703.9
2022-11-16T07:03:28.031Z,99703.6
2022-11-16T07:04:28.153Z,99706.73
2022-11-16T07:05:28.105Z,99698.25
2022-11-16T07:06:28.980Z,99704.52
2022-11-16T07:07:28.122Z,99703.77
2022-11-16T07:08:28.351Z,99703.16
2022-11-16T07:09:28.358Z,99701.44
2022-11-16T07:10:28.190Z,99705.7
2022-11-16T07:11:28.198Z,99701.79
2022-11-16T07:12:29.255Z,99703.86
2022-11-16T07:13:28.175Z,99703.15
2022-11-16T07:14:28.204Z,99699.13
2022-11-16T07:15:28.228Z,99698.91
2022-11-16T07:16:28.796Z,99696.29
2022-11-16T07:17:28.245Z,99700.97
2022-11-16T07:18:28.294Z,99693.95
2022-11-16T07:19:28.291Z,99702.92
2022-11-16T07:20:28.334Z,99702.28
2022-11-16T07:21:31.289Z,99700.27
2022-11-16T07:22:28.343Z,99703.27
2022-11-16T07:23:29.919Z,99706.47
2022-11-16T07:24:28.319Z,99705.28
2022-11-16T07:25:28.539Z,99707.27
2022-11-16T07:26:28.382Z,99708.8
2022-11-16T07:27:28.348Z,99707.33
2022-11-16T07:28:29.325Z,99713.41
2022-11-16T07:29:28.430Z,99714.2
2022-11-16T07:30:28.410Z,99715.62
2022-11-16T07:31:28.468Z,99713.46
2022-11-16T07:32:29.383Z,99719.9
2022-11-16T07:33:28.637Z,99718.28
2022-11-16T07:34:28.545Z,99717.4
2022-11-16T07:35:28.570Z,99717.98
2022-11-16T07:36:28.725Z,99720.4
2022-11-16T07:37:28.588Z,99719.02
2022-11-16T07:38:28.959Z,99716.5
2022-11-16T07:39:28.581Z,99714.41
2022-11-16T07:40:28.981Z,99717.69
2022-11-16T07:41:28.807Z,99724.31
2022-11-16T07:42:28.647Z,99719.7
2022-11-16T07:43:29.500Z,99723.12
2022-11-16T07:44:28.717Z,99717.25
2022-11-16T07:45:28.991Z,99720.66
2022-11-16T07:46:46.074Z,99721.3
2022-11-16T07:47:36.815Z,99714.56
2022-11-16T07:48:35.487Z,99715.25
2022-11-16T07:49:33.504Z,99711.53
2022-11-16T07:50:35.991Z,99715.49
2022-11-16T07:51:34.122Z,99718.2
2022-11-16T07:52:33.896Z,99712.58
2022-11-16T07:53:35.301Z,99716.08
2022-11-16T07:54:33.611Z,99713.02
2022-11-16T07:55:33.679Z,99716.96
2022-11-16T07:56:33.820Z,99711.45
2022-11-16T07:57:33.614Z,99714.36
2022-11-16T07:58:35.175Z,99715.17
2022-11-16T07:59:33.659Z,99717.39
2022-11-16T08:00:33.831Z,99716.92
2022-11-16T08:01:33.820Z,99716.68
2022-11-16T08:02:33.811Z,99714.59
2022-11-16T08:03:34.637Z,99717.21
2022-11-16T08:04:34.069Z,99719.16
2022-11-16T08:05:33.972Z,99720.11
2022-11-16T08:06:33.992Z,99722.07
2022-11-16T08:07:34.359Z,99721.03
2022-11-16T08:08:34.588Z,99718.05
2022-11-16T08:09:34.460Z,99717.06
2022-11-16T08:10:34.171Z,99718.23
2022-11-16T08:11:33.948Z,99709.41
2022-11-16T08:12:33.884Z,99715.05
2022-11-16T08:13:34.843Z,99715.95
2022-11-16T08:14:34.059Z,99715.9
2022-11-16T08:15:33.920Z,99713.23
2022-11-16T08:16:33.951Z,99711.7
2022-11-16T08:17:38.520Z,99718.09
2022-11-16T08:18:36.023Z,99716.2
2022-11-16T08:19:35.392Z,99714.95
2022-11-16T08:20:35.194Z,99718.25
2022-11-16T08:21:35.227Z,99714.18
2022-11-16T08:22:35.257Z,99716.41
2022-11-16T08:23:35.685Z,99717.7
2022-11-16T08:24:35.272Z,99718.27
2022-11-16T08:25:35.318Z,99718.86
2022-11-16T08:26:35.385Z,99720.1
2022-11-16T08:27:35.707Z,99718.1
2022-11-16T08:28:36.789Z,99715.66
2022-11-16T08:29:35.405Z,99722.78
2022-11-16T08:30:35.467Z,99718.15
2022-11-16T08:31:35.394Z,99719.84
2022-11-16T08:32:36.017Z,99720.4
2022-11-16T08:33:35.442Z,99716.14
2022-11-16T08:34:35.461Z,99715.6
2022-11-16T08:35:36.436Z,99719.27
2022-11-16T08:36:35.522Z,99718.61
2022-11-16T08:37:35.769Z,99718.05
2022-11-16T08:38:36.424Z,99725.34
2022-11-16T08:39:35.685Z,99722.49
2022-11-16T08:40:35.620Z,99721.8
2022-11-16T08:41:35.930Z,99721.42
2022-11-16T08:42:39.402Z,99726.49
2022-11-16T08:43:39.539Z,99728.17
2022-11-16T08:44:39.340Z,99726.22
2022-11-16T08:45:39.139Z,99731.1
2022-11-16T08:46:39.604Z,99725.88
2022-11-16T08:47:39.328Z,99730.75
2022-11-16T08:48:39.358Z,99724.38
2022-11-16T08:49:39.180Z,99731.09
2022-11-16T08:51:02.309Z,99734.47
2022-11-16T08:51:40.337Z,99737.61
2022-11-16T08:52:40.324Z,99730.53
2022-11-16T08:53:40.698Z,99735.26
2022-11-16T08:54:40.364Z,99730.81
2022-11-16T08:55:41.262Z,99733.34
2022-11-16T08:56:40.907Z,99736.12
2022-11-16T08:57:40.416Z,99735.97
2022-11-16T08:58:41.476Z,99737.25
2022-11-16T08:59:40.864Z,99737.12
2022-11-16T09:00:40.678Z,99738.01
2022-11-16T09:01:40.597Z,99738
2022-11-16T09:02:40.492Z,99741.75
2022-11-16T09:03:40.923Z,99742.61
2022-11-16T09:04:40.496Z,99740.03
2022-11-16T09:05:40.516Z,99747.48
2022-11-16T09:06:40.558Z,99745.34
2022-11-16T09:07:40.952Z,99752.52
2022-11-16T09:08:41.625Z,99748.55
2022-11-16T09:09:40.558Z,99748.96
2022-11-16T09:10:40.626Z,99750.05
2022-11-16T09:11:40.618Z,99746.41
2022-11-16T09:12:40.839Z,99754.38
2022-11-16T09:13:40.652Z,99751.3
2022-11-16T09:14:40.858Z,99752.49
2022-11-16T09:15:40.654Z,99748.27
2022-11-16T09:16:40.698Z,99745.81
2022-11-16T09:17:40.827Z,99746.22
2022-11-16T09:18:40.727Z,99751.89
2022-11-16T09:19:40.740Z,99746.78
2022-11-16T09:20:43.962Z,99755.74
2022-11-16T09:21:40.751Z,99754.13
2022-11-16T09:22:40.793Z,99753.59
2022-11-16T09:23:40.807Z,99753.34
2022-11-16T09:24:40.802Z,99749.38
2022-11-16T09:25:41.029Z,99750.62
2022-11-16T09:26:40.823Z,99745.88
2022-11-16T09:27:40.835Z,99753.27
2022-11-16T09:28:40.874Z,99753.34
2022-11-16T09:29:40.855Z,99753.08
2022-11-16T09:30:41.099Z,99748.95
2022-11-16T09:31:41.293Z,99746.47
2022-11-16T09:32:40.874Z,99752.94
2022-11-16T09:33:40.950Z,99751.84
2022-11-16T09:34:40.951Z,99751.77
2022-11-16T09:35:45.146Z,99751.07
2022-11-16T09:36:41.751Z,99752.11
2022-11-16T09:37:41.761Z,99752.84
2022-11-16T09:39:44.274Z,99754.2
2022-11-16T09:40:45.534Z,99752.52
2022-11-16T09:43:56.439Z,99750.71
2022-11-16T09:45:00.187Z,99752.3
2022-11-16T09:47:01.924Z,99747.36
2022-11-16T09:48:03.750Z,99751.48
2022-11-16T09:49:03.572Z,99746.17
2022-11-16T09:50:03.984Z,99748.66
2022-11-16T09:51:02.998Z,99749.72
2022-11-16T09:52:02.608Z,99747.89
2022-11-16T09:54:07.270Z,99744.3
2022-11-16T09:56:11.328Z,99749.95
2022-11-16T09:57:12.596Z,99751.61
2022-11-16T09:58:14.013Z,99753.25
2022-11-16T10:00:15.058Z,99754.01
2022-11-16T10:03:16.926Z,99761.64
2022-11-16T10:04:19.904Z,99753.36
2022-11-16T10:05:21.358Z,99758.91
2022-11-16T10:06:22.674Z,99758.66
2022-11-16T10:09:25.250Z,99760.85
2022-11-16T10:10:36.452Z,99758.5
2022-11-16T10:15:47.571Z,99748.73
2022-11-16T10:18:00.414Z,99748.11
2022-11-16T10:19:58.616Z,99756.5
2022-11-16T10:27:24.853Z,99755.72
2022-11-16T10:30:20.188Z,99752.53
2022-11-16T10:32:23.658Z,99753.95
2022-11-16T10:33:25.313Z,99756.56
2022-11-16T10:34:24.202Z,99756.09
2022-11-16T10:36:24.282Z,99751.88
2022-11-16T10:37:28.470Z,99752.66
2022-11-16T10:38:27.487Z,99753.88
2022-11-16T10:39:25.190Z,99753.34
2022-11-16T10:40:26.686Z,99752.59
2022-11-16T10:42:30.710Z,99751.44
2022-11-16T10:43:28.848Z,99749.69
2022-11-16T10:45:39.121Z,99751.48
2022-11-16T10:46:36.135Z,99754.73
2022-11-16T10:47:36.515Z,99750.64
2022-11-16T10:48:37.087Z,99752.37
2022-11-16T10:51:38.326Z,99751.37
2022-11-16T10:52:38.374Z,99748.27
2022-11-16T10:53:39.481Z,99745.19
2022-11-16T10:54:43.917Z,99750.83
2022-11-16T10:55:40.731Z,99747.92
2022-11-16T10:56:42.359Z,99748.55
2022-11-16T10:58:52.092Z,99748.28
2022-11-16T10:59:49.991Z,99750.31
2022-11-16T11:00:49.617Z,99750.81
2022-11-16T11:01:51.804Z,99748.08
2022-11-16T11:02:48.329Z,99747.76
2022-11-16T11:03:48.393Z,99753.22
2022-11-16T11:05:53.250Z,99754.45
2022-11-16T11:06:56.907Z,99755.72
2022-11-16T11:08:00.865Z,99747.09
2022-11-16T11:10:00.695Z,99743.69
2022-11-16T11:11:02.020Z,99746.72
2022-11-16T11:12:01.904Z,99747.91
2022-11-16T11:13:02.349Z,99756.01
2022-11-16T11:14:03.050Z,99754.66
2022-11-16T11:17:17.615Z,99750.5
2022-11-16T11:18:10.447Z,99751.39
2022-11-16T11:20:20.827Z,99750.07
2022-11-16T11:21:16.512Z,99753.72
2022-11-16T11:22:13.658Z,99756.81
2022-11-16T11:23:18.181Z,99758.94
2022-11-16T11:24:43.376Z,99753.49
2022-11-16T11:27:24.451Z,99751.97
2022-11-16T11:28:28.113Z,99752.7
2022-11-16T11:29:31.549Z,99757.54
2022-11-16T11:30:28.037Z,99760.13
2022-11-16T11:31:35.386Z,99759.88
2022-11-16T11:32:34.209Z,99758.53
2022-11-16T11:35:35.370Z,99756.67
2022-11-16T11:36:37.070Z,99756.98
2022-11-16T11:37:37.058Z,99757.8
2022-11-16T11:39:36.768Z,99758.7
2022-11-16T11:40:35.995Z,99759.53
2022-11-16T11:42:38.622Z,99760.47
2022-11-16T11:43:37.195Z,99758
2022-11-16T11:44:42.331Z,99760.7
2022-11-16T11:48:49.463Z,99761.07
2022-11-16T11:49:49.333Z,99756.18
2022-11-16T11:51:48.462Z,99749.38
2022-11-16T11:53:56.232Z,99750.85
2022-11-16T11:54:54.425Z,99759.23
2022-11-16T11:55:55.881Z,99759.86
2022-11-16T11:56:52.597Z,99760.47
2022-11-16T11:57:53.118Z,99763.2
2022-11-16T11:58:52.742Z,99765.97
2022-11-16T11:59:53.621Z,99766.05
2022-11-16T12:01:59.250Z,99760.62
2022-11-16T12:11:31.841Z,99751.08
2022-11-16T12:14:36.882Z,99755.7
2022-11-16T12:34:35.748Z,99759.81
2022-11-16T12:41:52.829Z,99758.47
2022-11-16T12:55:27.239Z,99751.42
2022-11-16T12:56:22.755Z,99750.11
2022-11-16T12:57:26.519Z,99749.9
2022-11-16T13:00:37.054Z,99745.94
2022-11-16T13:01:36.742Z,99751.74
2022-11-16T13:02:40.930Z,99751.09
2022-11-16T13:03:47.411Z,99747.98
2022-11-16T13:04:42.154Z,99749.73
2022-11-16T13:05:49.680Z,99746.94
2022-11-16T13:06:54.535Z,99752.38
2022-11-16T13:07:44.352Z,99750.77
2022-11-16T13:09:48.483Z,99751.55
2022-11-16T13:10:47.983Z,99751.34
2022-11-16T13:11:50.229Z,99753.16
2022-11-16T13:12:49.406Z,99751.81
2022-11-16T13:13:53.573Z,99748.83
2022-11-16T13:14:53.338Z,99755.47
2022-11-16T13:15:51.092Z,99757.45
2022-11-16T13:16:51.090Z,99754.28
2022-11-16T13:17:54.131Z,99765.12
2022-11-16T13:18:51.318Z,99762.45
2022-11-16T13:19:59.104Z,99763.7
2022-11-16T13:23:10.641Z,99770.98
2022-11-16T13:24:15.724Z,99772.14
2022-11-16T13:30:21.078Z,99771.62
2022-11-16T13:31:25.296Z,99769.78
2022-11-16T13:33:30.081Z,99763.67
2022-11-16T13:34:32.282Z,99770.23
2022-11-16T13:35:28.686Z,99765.98
2022-11-16T13:40:42.869Z,99768.33
2022-11-16T13:41:44.103Z,99765.93
2022-11-16T13:43:49.344Z,99765.67
2022-11-16T13:44:51.410Z,99764.69
2022-11-16T13:45:58.761Z,99762.17
2022-11-16T13:47:01.919Z,99759.72
2022-11-16T13:47:57.769Z,99762.64
2022-11-16T13:48:54.472Z,99758.9
2022-11-16T13:49:55.782Z,99757.88
2022-11-16T13:50:58.500Z,99755.2
2022-11-16T13:51:56.760Z,99759.98
2022-11-16T13:54:43.830Z,99761.84
2022-11-16T13:54:59.084Z,99759.81
2022-11-16T13:57:03.677Z,99763.63
2022-11-16T13:58:05.201Z,99759.22
2022-11-16T13:59:01.523Z,99762.16
2022-11-16T14:01:06.422Z,99759.7
2022-11-16T14:05:16.452Z,99764.34
2022-11-16T14:13:37.545Z,99760.86
2022-11-16T14:15:30.608Z,99756.53
2022-11-16T14:18:37.631Z,99754.79
2022-11-16T14:22:53.918Z,99755.48
2022-11-16T14:31:14.141Z,99752.96
2022-11-16T14:33:13.015Z,99756.26
2022-11-16T14:34:15.303Z,99758.61
2022-11-16T14:36:16.622Z,99758.54
2022-11-16T14:38:26.376Z,99757.45
2022-11-16T14:40:24.825Z,99755.58
2022-11-16T14:41:24.697Z,99756.19
2022-11-16T14:42:42.992Z,99754.45
2022-11-16T14:44:32.259Z,99754.83
2022-11-16T14:45:31.237Z,99759.4
2022-11-16T14:46:32.958Z,99754.79
2022-11-16T14:47:31.510Z,99759.16
2022-11-16T14:48:30.731Z,99758.25
2022-11-16T14:49:32.111Z,99754.78
2022-11-16T14:50:30.321Z,99752.52
2022-11-16T14:51:36.678Z,99756.75
2022-11-16T14:52:38.523Z,99752.72
2022-11-16T14:53:37.723Z,99754.88
2022-11-16T14:54:41.373Z,99753.85
2022-11-16T14:55:41.837Z,99747.88
2022-11-16T14:57:41.244Z,99757.36